sensor_id;sensor_type;location;lat;lon;timestamp;P1;durP1;ratioP1;P2;durP2;ratioP2
58468;SDS011;44257;44.804;10.220;2024-01-15T00:01:43;115.15;;;58.45;;
58468;SDS011;44257;44.804;10.220;2024-01-15T00:04:09;114.43;;;59.70;;
58468;SDS011;44257;44.804;10.220;2024-01-15T00:06:35;111.32;;;57.97;;
58468;SDS011;44257;44.804;10.220;2024-01-15T00:09:01;109.32;;;58.78;;
58468;SDS011;44257;44.804;10.220;2024-01-15T00:11:27;108.25;;;55.88;;
58468;SDS011;44257;44.804;10.220;2024-01-15T00:13:53;109.60;;;59.72;;
58468;SDS011;44257;44.804;10.220;2024-01-15T00:16:19;107.85;;;57.63;;
58468;SDS011;44257;44.804;10.220;2024-01-15T00:18:45;111.15;;;59.92;;
58468;SDS011;44257;44.804;10.220;2024-01-15T00:21:11;112.72;;;60.33;;
58468;SDS011;44257;44.804;10.220;2024-01-15T00:23:39;106.70;;;58.03;;
58468;SDS011;44257;44.804;10.220;2024-01-15T00:26:09;108.25;;;58.97;;
58468;SDS011;44257;44.804;10.220;2024-01-15T00:28:36;104.75;;;58.20;;
58468;SDS011;44257;44.804;10.220;2024-01-15T00:31:02;108.20;;;56.88;;
58468;SDS011;44257;44.804;10.220;2024-01-15T00:33:29;109.28;;;57.15;;
58468;SDS011;44257;44.804;10.220;2024-01-15T00:35:55;104.60;;;54.85;;
58468;SDS011;44257;44.804;10.220;2024-01-15T00:38:21;103.97;;;54.92;;
58468;SDS011;44257;44.804;10.220;2024-01-15T00:40:47;107.53;;;57.58;;
58468;SDS011;44257;44.804;10.220;2024-01-15T00:43:13;103.38;;;55.67;;
58468;SDS011;44257;44.804;10.220;2024-01-15T00:45:39;107.15;;;57.55;;
58468;SDS011;44257;44.804;10.220;2024-01-15T00:48:06;98.70;;;54.35;;
58468;SDS011;44257;44.804;10.220;2024-01-15T00:50:32;92.10;;;54.38;;
58468;SDS011;44257;44.804;10.220;2024-01-15T00:52:58;97.35;;;53.42;;
58468;SDS011;44257;44.804;10.220;2024-01-15T00:55:24;101.38;;;55.75;;
58468;SDS011;44257;44.804;10.220;2024-01-15T00:57:50;109.68;;;57.97;;
58468;SDS011;44257;44.804;10.220;2024-01-15T01:00:15;116.28;;;59.50;;
58468;SDS011;44257;44.804;10.220;2024-01-15T01:02:41;117.53;;;58.70;;
58468;SDS011;44257;44.804;10.220;2024-01-15T01:05:07;112.38;;;58.38;;
58468;SDS011;44257;44.804;10.220;2024-01-15T01:07:33;101.88;;;55.45;;
58468;SDS011;44257;44.804;10.220;2024-01-15T01:09:59;103.35;;;55.97;;
58468;SDS011;44257;44.804;10.220;2024-01-15T01:12:25;101.53;;;55.17;;
58468;SDS011;44257;44.804;10.220;2024-01-15T01:14:51;105.38;;;56.65;;
58468;SDS011;44257;44.804;10.220;2024-01-15T01:17:17;114.93;;;57.40;;
58468;SDS011;44257;44.804;10.220;2024-01-15T01:19:42;110.05;;;60.03;;
58468;SDS011;44257;44.804;10.220;2024-01-15T01:22:08;111.38;;;58.28;;
58468;SDS011;44257;44.804;10.220;2024-01-15T01:24:34;107.88;;;60.20;;
58468;SDS011;44257;44.804;10.220;2024-01-15T01:27:00;104.05;;;56.63;;
58468;SDS011;44257;44.804;10.220;2024-01-15T01:29:26;115.57;;;60.90;;
58468;SDS011;44257;44.804;10.220;2024-01-15T01:31:52;121.65;;;61.63;;
58468;SDS011;44257;44.804;10.220;2024-01-15T01:34:18;104.72;;;57.95;;
58468;SDS011;44257;44.804;10.220;2024-01-15T01:36:43;108.60;;;59.25;;
58468;SDS011;44257;44.804;10.220;2024-01-15T01:39:09;109.32;;;58.30;;
58468;SDS011;44257;44.804;10.220;2024-01-15T01:41:35;107.60;;;59.35;;
58468;SDS011;44257;44.804;10.220;2024-01-15T01:44:01;106.63;;;60.35;;
58468;SDS011;44257;44.804;10.220;2024-01-15T01:46:27;103.13;;;59.78;;
58468;SDS011;44257;44.804;10.220;2024-01-15T01:48:54;107.70;;;58.33;;
58468;SDS011;44257;44.804;10.220;2024-01-15T01:51:21;106.03;;;58.85;;
58468;SDS011;44257;44.804;10.220;2024-01-15T01:53:49;104.65;;;57.53;;
58468;SDS011;44257;44.804;10.220;2024-01-15T01:56:16;104.32;;;55.72;;
58468;SDS011;44257;44.804;10.220;2024-01-15T01:58:43;106.63;;;58.22;;
58468;SDS011;44257;44.804;10.220;2024-01-15T02:01:12;106.25;;;57.45;;
58468;SDS011;44257;44.804;10.220;2024-01-15T02:03:39;108.30;;;57.90;;
58468;SDS011;44257;44.804;10.220;2024-01-15T02:06:05;102.85;;;57.90;;
58468;SDS011;44257;44.804;10.220;2024-01-15T02:08:31;101.03;;;57.83;;
58468;SDS011;44257;44.804;10.220;2024-01-15T02:10:57;106.57;;;59.35;;
58468;SDS011;44257;44.804;10.220;2024-01-15T02:13:23;109.25;;;60.05;;
58468;SDS011;44257;44.804;10.220;2024-01-15T02:15:49;115.50;;;61.45;;
58468;SDS011;44257;44.804;10.220;2024-01-15T02:18:15;111.18;;;59.67;;
58468;SDS011;44257;44.804;10.220;2024-01-15T02:20:41;112.88;;;60.88;;
58468;SDS011;44257;44.804;10.220;2024-01-15T02:23:10;110.75;;;60.63;;
58468;SDS011;44257;44.804;10.220;2024-01-15T02:25:38;108.10;;;59.45;;
58468;SDS011;44257;44.804;10.220;2024-01-15T02:28:06;103.97;;;56.80;;
58468;SDS011;44257;44.804;10.220;2024-01-15T02:30:35;100.32;;;57.00;;
58468;SDS011;44257;44.804;10.220;2024-01-15T02:33:05;104.90;;;58.63;;
58468;SDS011;44257;44.804;10.220;2024-01-15T02:35:35;99.32;;;55.03;;
58468;SDS011;44257;44.804;10.220;2024-01-15T02:38:02;93.00;;;54.28;;
58468;SDS011;44257;44.804;10.220;2024-01-15T02:40:28;99.72;;;56.90;;
58468;SDS011;44257;44.804;10.220;2024-01-15T02:42:54;95.82;;;55.58;;
58468;SDS011;44257;44.804;10.220;2024-01-15T02:45:21;95.38;;;57.17;;
58468;SDS011;44257;44.804;10.220;2024-01-15T02:47:47;91.18;;;53.65;;
58468;SDS011;44257;44.804;10.220;2024-01-15T02:50:13;96.20;;;55.95;;
58468;SDS011;44257;44.804;10.220;2024-01-15T02:52:39;101.25;;;60.03;;
58468;SDS011;44257;44.804;10.220;2024-01-15T02:55:06;95.53;;;56.22;;
58468;SDS011;44257;44.804;10.220;2024-01-15T02:57:32;97.20;;;55.63;;
58468;SDS011;44257;44.804;10.220;2024-01-15T02:59:58;90.28;;;54.30;;
58468;SDS011;44257;44.804;10.220;2024-01-15T03:02:24;89.82;;;54.55;;
58468;SDS011;44257;44.804;10.220;2024-01-15T03:04:50;91.53;;;55.80;;
58468;SDS011;44257;44.804;10.220;2024-01-15T03:07:16;90.03;;;54.67;;
58468;SDS011;44257;44.804;10.220;2024-01-15T03:09:42;92.15;;;54.53;;
58468;SDS011;44257;44.804;10.220;2024-01-15T03:12:08;94.07;;;53.97;;
58468;SDS011;44257;44.804;10.220;2024-01-15T03:14:34;86.43;;;53.53;;
58468;SDS011;44257;44.804;10.220;2024-01-15T03:17:00;86.78;;;55.45;;
58468;SDS011;44257;44.804;10.220;2024-01-15T03:19:26;85.95;;;54.03;;
58468;SDS011;44257;44.804;10.220;2024-01-15T03:21:52;82.70;;;52.97;;
58468;SDS011;44257;44.804;10.220;2024-01-15T03:24:18;85.85;;;52.08;;
58468;SDS011;44257;44.804;10.220;2024-01-15T03:26:44;83.35;;;52.13;;
58468;SDS011;44257;44.804;10.220;2024-01-15T03:29:10;86.60;;;52.97;;
58468;SDS011;44257;44.804;10.220;2024-01-15T03:31:35;90.78;;;55.95;;
58468;SDS011;44257;44.804;10.220;2024-01-15T03:34:01;95.85;;;57.53;;
58468;SDS011;44257;44.804;10.220;2024-01-15T03:36:27;93.00;;;54.78;;
58468;SDS011;44257;44.804;10.220;2024-01-15T03:38:53;95.25;;;55.67;;
58468;SDS011;44257;44.804;10.220;2024-01-15T03:41:18;92.03;;;54.72;;
58468;SDS011;44257;44.804;10.220;2024-01-15T03:43:44;98.30;;;56.33;;
58468;SDS011;44257;44.804;10.220;2024-01-15T03:46:10;106.47;;;59.33;;
58468;SDS011;44257;44.804;10.220;2024-01-15T03:48:36;109.18;;;62.03;;
58468;SDS011;44257;44.804;10.220;2024-01-15T03:51:02;117.95;;;60.92;;
58468;SDS011;44257;44.804;10.220;2024-01-15T03:53:28;110.35;;;60.35;;
58468;SDS011;44257;44.804;10.220;2024-01-15T03:55:53;105.93;;;59.30;;
58468;SDS011;44257;44.804;10.220;2024-01-15T03:58:19;110.95;;;62.83;;
58468;SDS011;44257;44.804;10.220;2024-01-15T04:00:45;111.93;;;59.92;;
58468;SDS011;44257;44.804;10.220;2024-01-15T04:03:11;116.60;;;64.13;;
58468;SDS011;44257;44.804;10.220;2024-01-15T04:05:37;121.60;;;61.63;;
58468;SDS011;44257;44.804;10.220;2024-01-15T04:08:03;118.95;;;56.63;;
58468;SDS011;44257;44.804;10.220;2024-01-15T04:10:29;109.07;;;53.70;;
58468;SDS011;44257;44.804;10.220;2024-01-15T04:12:55;122.50;;;62.25;;
58468;SDS011;44257;44.804;10.220;2024-01-15T04:15:22;118.50;;;61.97;;
58468;SDS011;44257;44.804;10.220;2024-01-15T04:17:48;126.30;;;61.03;;
58468;SDS011;44257;44.804;10.220;2024-01-15T04:20:13;124.72;;;60.20;;
58468;SDS011;44257;44.804;10.220;2024-01-15T04:22:39;120.13;;;58.67;;
58468;SDS011;44257;44.804;10.220;2024-01-15T04:25:05;112.53;;;56.67;;
58468;SDS011;44257;44.804;10.220;2024-01-15T04:27:31;115.97;;;59.13;;
58468;SDS011;44257;44.804;10.220;2024-01-15T04:29:57;126.20;;;62.08;;
58468;SDS011;44257;44.804;10.220;2024-01-15T04:32:23;117.18;;;60.17;;
58468;SDS011;44257;44.804;10.220;2024-01-15T04:34:49;125.95;;;60.25;;
58468;SDS011;44257;44.804;10.220;2024-01-15T04:37:14;115.97;;;62.90;;
58468;SDS011;44257;44.804;10.220;2024-01-15T04:39:40;123.30;;;59.75;;
58468;SDS011;44257;44.804;10.220;2024-01-15T04:42:06;129.25;;;62.08;;
58468;SDS011;44257;44.804;10.220;2024-01-15T04:44:32;122.43;;;63.20;;
58468;SDS011;44257;44.804;10.220;2024-01-15T04:46:58;126.82;;;63.22;;
58468;SDS011;44257;44.804;10.220;2024-01-15T04:49:24;118.00;;;58.63;;
58468;SDS011;44257;44.804;10.220;2024-01-15T04:51:52;112.95;;;61.85;;
58468;SDS011;44257;44.804;10.220;2024-01-15T04:54:18;117.03;;;58.63;;
58468;SDS011;44257;44.804;10.220;2024-01-15T04:56:45;129.75;;;62.80;;
58468;SDS011;44257;44.804;10.220;2024-01-15T04:59:11;109.57;;;59.03;;
58468;SDS011;44257;44.804;10.220;2024-01-15T05:01:37;107.80;;;60.47;;
58468;SDS011;44257;44.804;10.220;2024-01-15T05:04:03;111.05;;;63.88;;
58468;SDS011;44257;44.804;10.220;2024-01-15T05:06:29;112.65;;;61.20;;
58468;SDS011;44257;44.804;10.220;2024-01-15T05:08:55;110.05;;;59.83;;
58468;SDS011;44257;44.804;10.220;2024-01-15T05:11:20;116.30;;;64.63;;
58468;SDS011;44257;44.804;10.220;2024-01-15T05:13:46;108.57;;;58.15;;
58468;SDS011;44257;44.804;10.220;2024-01-15T05:16:12;109.57;;;57.78;;
58468;SDS011;44257;44.804;10.220;2024-01-15T05:18:38;113.20;;;62.78;;
58468;SDS011;44257;44.804;10.220;2024-01-15T05:21:04;110.40;;;60.00;;
58468;SDS011;44257;44.804;10.220;2024-01-15T05:23:30;99.47;;;59.92;;
58468;SDS011;44257;44.804;10.220;2024-01-15T05:25:56;107.43;;;59.08;;
58468;SDS011;44257;44.804;10.220;2024-01-15T05:28:22;100.00;;;59.28;;
58468;SDS011;44257;44.804;10.220;2024-01-15T05:30:48;101.82;;;59.28;;
58468;SDS011;44257;44.804;10.220;2024-01-15T05:33:16;100.07;;;57.55;;
58468;SDS011;44257;44.804;10.220;2024-01-15T05:35:42;98.22;;;57.47;;
58468;SDS011;44257;44.804;10.220;2024-01-15T05:38:08;94.32;;;55.75;;
58468;SDS011;44257;44.804;10.220;2024-01-15T05:40:34;94.38;;;56.45;;
58468;SDS011;44257;44.804;10.220;2024-01-15T05:42:59;91.97;;;53.78;;
58468;SDS011;44257;44.804;10.220;2024-01-15T05:45:26;92.53;;;54.85;;
58468;SDS011;44257;44.804;10.220;2024-01-15T05:47:52;91.10;;;52.85;;
58468;SDS011;44257;44.804;10.220;2024-01-15T05:50:18;86.13;;;54.28;;
58468;SDS011;44257;44.804;10.220;2024-01-15T05:52:44;89.50;;;53.72;;
58468;SDS011;44257;44.804;10.220;2024-01-15T05:55:09;84.22;;;51.75;;
58468;SDS011;44257;44.804;10.220;2024-01-15T05:57:36;92.75;;;54.67;;
58468;SDS011;44257;44.804;10.220;2024-01-15T06:00:03;88.13;;;51.70;;
58468;SDS011;44257;44.804;10.220;2024-01-15T06:02:31;84.13;;;50.75;;
58468;SDS011;44257;44.804;10.220;2024-01-15T06:04:57;83.60;;;52.13;;
58468;SDS011;44257;44.804;10.220;2024-01-15T06:07:22;84.07;;;52.97;;
58468;SDS011;44257;44.804;10.220;2024-01-15T06:09:49;82.50;;;51.05;;
58468;SDS011;44257;44.804;10.220;2024-01-15T06:12:15;84.63;;;53.00;;
58468;SDS011;44257;44.804;10.220;2024-01-15T06:14:40;85.05;;;52.80;;
58468;SDS011;44257;44.804;10.220;2024-01-15T06:17:07;89.70;;;54.20;;
58468;SDS011;44257;44.804;10.220;2024-01-15T06:19:33;89.40;;;57.72;;
58468;SDS011;44257;44.804;10.220;2024-01-15T06:21:59;84.60;;;53.85;;
58468;SDS011;44257;44.804;10.220;2024-01-15T06:24:25;85.15;;;52.88;;
58468;SDS011;44257;44.804;10.220;2024-01-15T06:26:51;84.93;;;54.95;;
58468;SDS011;44257;44.804;10.220;2024-01-15T06:29:16;85.68;;;53.58;;
58468;SDS011;44257;44.804;10.220;2024-01-15T06:31:43;84.80;;;52.67;;
58468;SDS011;44257;44.804;10.220;2024-01-15T06:34:09;86.50;;;53.25;;
58468;SDS011;44257;44.804;10.220;2024-01-15T06:36:35;82.00;;;52.05;;
58468;SDS011;44257;44.804;10.220;2024-01-15T06:39:01;78.75;;;51.20;;
58468;SDS011;44257;44.804;10.220;2024-01-15T06:41:27;81.93;;;53.17;;
58468;SDS011;44257;44.804;10.220;2024-01-15T06:43:53;81.28;;;52.00;;
58468;SDS011;44257;44.804;10.220;2024-01-15T06:46:21;79.45;;;49.72;;
58468;SDS011;44257;44.804;10.220;2024-01-15T06:48:47;85.32;;;53.80;;
58468;SDS011;44257;44.804;10.220;2024-01-15T06:51:13;84.38;;;53.47;;
58468;SDS011;44257;44.804;10.220;2024-01-15T06:53:40;81.30;;;51.42;;
58468;SDS011;44257;44.804;10.220;2024-01-15T06:56:06;82.50;;;51.85;;
58468;SDS011;44257;44.804;10.220;2024-01-15T06:58:32;83.25;;;52.35;;
58468;SDS011;44257;44.804;10.220;2024-01-15T07:00:58;79.28;;;50.38;;
58468;SDS011;44257;44.804;10.220;2024-01-15T07:03:24;81.53;;;51.78;;
58468;SDS011;44257;44.804;10.220;2024-01-15T07:05:50;86.38;;;52.88;;
58468;SDS011;44257;44.804;10.220;2024-01-15T07:08:36;81.93;;;50.53;;
58468;SDS011;44257;44.804;10.220;2024-01-15T07:11:14;86.30;;;52.55;;
58468;SDS011;44257;44.804;10.220;2024-01-15T07:13:40;90.78;;;54.83;;
58468;SDS011;44257;44.804;10.220;2024-01-15T07:16:18;84.15;;;52.70;;
58468;SDS011;44257;44.804;10.220;2024-01-15T07:18:52;83.57;;;52.42;;
58468;SDS011;44257;44.804;10.220;2024-01-15T07:21:31;86.18;;;53.42;;
58468;SDS011;44257;44.804;10.220;2024-01-15T07:24:23;79.43;;;50.95;;
58468;SDS011;44257;44.804;10.220;2024-01-15T07:26:49;86.38;;;52.40;;
58468;SDS011;44257;44.804;10.220;2024-01-15T07:29:15;84.80;;;52.40;;
58468;SDS011;44257;44.804;10.220;2024-01-15T07:31:47;80.00;;;50.75;;
58468;SDS011;44257;44.804;10.220;2024-01-15T07:34:14;80.78;;;51.33;;
58468;SDS011;44257;44.804;10.220;2024-01-15T07:36:40;83.47;;;52.47;;
58468;SDS011;44257;44.804;10.220;2024-01-15T07:39:05;78.95;;;52.95;;
58468;SDS011;44257;44.804;10.220;2024-01-15T07:41:31;85.47;;;52.60;;
58468;SDS011;44257;44.804;10.220;2024-01-15T07:43:57;83.65;;;52.17;;
58468;SDS011;44257;44.804;10.220;2024-01-15T07:46:23;78.57;;;49.97;;
58468;SDS011;44257;44.804;10.220;2024-01-15T07:48:50;74.72;;;49.00;;
58468;SDS011;44257;44.804;10.220;2024-01-15T07:51:21;82.87;;;51.27;;
58468;SDS011;44257;44.804;10.220;2024-01-15T07:53:47;83.20;;;52.30;;
58468;SDS011;44257;44.804;10.220;2024-01-15T07:56:13;78.65;;;51.92;;
58468;SDS011;44257;44.804;10.220;2024-01-15T07:58:39;75.63;;;49.85;;
58468;SDS011;44257;44.804;10.220;2024-01-15T08:01:05;78.95;;;51.38;;
58468;SDS011;44257;44.804;10.220;2024-01-15T08:03:31;77.35;;;50.08;;
58468;SDS011;44257;44.804;10.220;2024-01-15T08:05:57;78.10;;;52.30;;
58468;SDS011;44257;44.804;10.220;2024-01-15T08:08:24;79.32;;;50.88;;
58468;SDS011;44257;44.804;10.220;2024-01-15T08:10:54;78.53;;;52.80;;
58468;SDS011;44257;44.804;10.220;2024-01-15T08:13:20;79.72;;;50.58;;
58468;SDS011;44257;44.804;10.220;2024-01-15T08:15:46;74.78;;;49.55;;
58468;SDS011;44257;44.804;10.220;2024-01-15T08:18:12;75.10;;;49.35;;
58468;SDS011;44257;44.804;10.220;2024-01-15T08:20:38;78.00;;;51.03;;
58468;SDS011;44257;44.804;10.220;2024-01-15T08:23:04;74.03;;;49.80;;
58468;SDS011;44257;44.804;10.220;2024-01-15T08:25:30;74.95;;;49.03;;
58468;SDS011;44257;44.804;10.220;2024-01-15T08:27:57;77.53;;;49.20;;
58468;SDS011;44257;44.804;10.220;2024-01-15T08:30:23;76.15;;;50.47;;
58468;SDS011;44257;44.804;10.220;2024-01-15T08:32:55;78.45;;;52.13;;
58468;SDS011;44257;44.804;10.220;2024-01-15T08:35:22;77.63;;;49.53;;
58468;SDS011;44257;44.804;10.220;2024-01-15T08:37:52;76.18;;;49.95;;
58468;SDS011;44257;44.804;10.220;2024-01-15T08:40:18;74.22;;;49.75;;
58468;SDS011;44257;44.804;10.220;2024-01-15T08:42:44;72.18;;;48.75;;
58468;SDS011;44257;44.804;10.220;2024-01-15T08:45:14;79.32;;;49.72;;
58468;SDS011;44257;44.804;10.220;2024-01-15T08:47:40;73.05;;;48.40;;
58468;SDS011;44257;44.804;10.220;2024-01-15T08:50:06;73.45;;;49.67;;
58468;SDS011;44257;44.804;10.220;2024-01-15T08:52:35;71.70;;;48.25;;
58468;SDS011;44257;44.804;10.220;2024-01-15T08:55:02;68.28;;;45.70;;
58468;SDS011;44257;44.804;10.220;2024-01-15T08:57:29;70.90;;;47.95;;
58468;SDS011;44257;44.804;10.220;2024-01-15T08:59:56;69.15;;;47.38;;
58468;SDS011;44257;44.804;10.220;2024-01-15T09:02:21;75.53;;;47.35;;
58468;SDS011;44257;44.804;10.220;2024-01-15T09:04:47;73.60;;;46.42;;
58468;SDS011;44257;44.804;10.220;2024-01-15T09:07:13;72.35;;;48.65;;
58468;SDS011;44257;44.804;10.220;2024-01-15T09:09:39;70.47;;;48.38;;
58468;SDS011;44257;44.804;10.220;2024-01-15T09:12:07;66.53;;;46.33;;
58468;SDS011;44257;44.804;10.220;2024-01-15T09:14:33;62.13;;;45.85;;
58468;SDS011;44257;44.804;10.220;2024-01-15T09:16:59;69.95;;;46.85;;
58468;SDS011;44257;44.804;10.220;2024-01-15T09:19:25;70.93;;;47.65;;
58468;SDS011;44257;44.804;10.220;2024-01-15T09:21:51;67.25;;;46.45;;
58468;SDS011;44257;44.804;10.220;2024-01-15T09:24:16;70.38;;;47.47;;
58468;SDS011;44257;44.804;10.220;2024-01-15T09:26:42;67.80;;;45.97;;
58468;SDS011;44257;44.804;10.220;2024-01-15T09:29:08;66.35;;;45.55;;
58468;SDS011;44257;44.804;10.220;2024-01-15T09:31:35;71.13;;;46.95;;
58468;SDS011;44257;44.804;10.220;2024-01-15T09:34:01;67.20;;;45.30;;
58468;SDS011;44257;44.804;10.220;2024-01-15T09:36:27;68.82;;;47.00;;
58468;SDS011;44257;44.804;10.220;2024-01-15T09:38:53;69.55;;;47.17;;
58468;SDS011;44257;44.804;10.220;2024-01-15T09:41:19;66.07;;;46.45;;
58468;SDS011;44257;44.804;10.220;2024-01-15T09:43:45;65.47;;;44.30;;
58468;SDS011;44257;44.804;10.220;2024-01-15T09:46:11;70.88;;;47.00;;
58468;SDS011;44257;44.804;10.220;2024-01-15T09:48:37;65.60;;;45.50;;
58468;SDS011;44257;44.804;10.220;2024-01-15T09:51:04;64.53;;;45.33;;
58468;SDS011;44257;44.804;10.220;2024-01-15T09:53:32;65.95;;;44.28;;
58468;SDS011;44257;44.804;10.220;2024-01-15T09:55:59;63.38;;;45.45;;
58468;SDS011;44257;44.804;10.220;2024-01-15T09:58:25;63.50;;;44.08;;
58468;SDS011;44257;44.804;10.220;2024-01-15T10:00:51;66.82;;;44.45;;
58468;SDS011;44257;44.804;10.220;2024-01-15T10:03:18;63.97;;;44.53;;
58468;SDS011;44257;44.804;10.220;2024-01-15T10:05:43;63.03;;;44.60;;
58468;SDS011;44257;44.804;10.220;2024-01-15T10:08:10;60.47;;;43.22;;
58468;SDS011;44257;44.804;10.220;2024-01-15T10:10:36;62.65;;;42.92;;
58468;SDS011;44257;44.804;10.220;2024-01-15T10:13:03;65.68;;;45.75;;
58468;SDS011;44257;44.804;10.220;2024-01-15T10:15:33;61.50;;;43.47;;
58468;SDS011;44257;44.804;10.220;2024-01-15T10:18:02;67.65;;;46.38;;
58468;SDS011;44257;44.804;10.220;2024-01-15T10:20:28;63.50;;;45.15;;
58468;SDS011;44257;44.804;10.220;2024-01-15T10:22:54;64.32;;;45.80;;
58468;SDS011;44257;44.804;10.220;2024-01-15T10:25:21;64.50;;;44.25;;
58468;SDS011;44257;44.804;10.220;2024-01-15T10:28:00;69.57;;;44.30;;
58468;SDS011;44257;44.804;10.220;2024-01-15T10:30:27;64.90;;;45.20;;
58468;SDS011;44257;44.804;10.220;2024-01-15T10:32:58;60.50;;;42.90;;
58468;SDS011;44257;44.804;10.220;2024-01-15T10:35:32;63.95;;;44.15;;
58468;SDS011;44257;44.804;10.220;2024-01-15T10:38:00;64.40;;;44.05;;
58468;SDS011;44257;44.804;10.220;2024-01-15T10:40:26;64.85;;;43.22;;
58468;SDS011;44257;44.804;10.220;2024-01-15T10:42:53;65.20;;;42.90;;
58468;SDS011;44257;44.804;10.220;2024-01-15T10:45:19;65.13;;;45.17;;
58468;SDS011;44257;44.804;10.220;2024-01-15T10:47:45;62.22;;;44.97;;
58468;SDS011;44257;44.804;10.220;2024-01-15T10:50:11;64.97;;;45.63;;
58468;SDS011;44257;44.804;10.220;2024-01-15T10:52:38;60.28;;;43.80;;
58468;SDS011;44257;44.804;10.220;2024-01-15T10:55:08;59.95;;;42.35;;
58468;SDS011;44257;44.804;10.220;2024-01-15T10:57:35;60.58;;;41.30;;
58468;SDS011;44257;44.804;10.220;2024-01-15T11:00:02;56.53;;;38.92;;
58468;SDS011;44257;44.804;10.220;2024-01-15T11:02:34;59.85;;;42.25;;
58468;SDS011;44257;44.804;10.220;2024-01-15T11:05:02;59.63;;;42.73;;
58468;SDS011;44257;44.804;10.220;2024-01-15T11:07:29;56.30;;;41.10;;
58468;SDS011;44257;44.804;10.220;2024-01-15T11:09:56;59.40;;;41.58;;
58468;SDS011;44257;44.804;10.220;2024-01-15T11:12:25;62.30;;;43.15;;
58468;SDS011;44257;44.804;10.220;2024-01-15T11:14:51;61.55;;;45.28;;
58468;SDS011;44257;44.804;10.220;2024-01-15T11:17:19;61.13;;;42.97;;
58468;SDS011;44257;44.804;10.220;2024-01-15T11:19:48;53.53;;;39.22;;
58468;SDS011;44257;44.804;10.220;2024-01-15T11:24:56;54.80;;;39.53;;
58468;SDS011;44257;44.804;10.220;2024-01-15T11:27:42;54.40;;;39.70;;
58468;SDS011;44257;44.804;10.220;2024-01-15T11:30:09;60.72;;;41.90;;
58468;SDS011;44257;44.804;10.220;2024-01-15T11:32:37;60.17;;;41.90;;
58468;SDS011;44257;44.804;10.220;2024-01-15T11:35:06;58.65;;;41.33;;
58468;SDS011;44257;44.804;10.220;2024-01-15T11:42:58;56.83;;;39.53;;
58468;SDS011;44257;44.804;10.220;2024-01-15T11:45:24;58.33;;;41.50;;
58468;SDS011;44257;44.804;10.220;2024-01-15T11:50:40;60.75;;;42.28;;
58468;SDS011;44257;44.804;10.220;2024-01-15T11:53:55;54.00;;;39.60;;
58468;SDS011;44257;44.804;10.220;2024-01-15T11:56:11;57.85;;;41.53;;
58468;SDS011;44257;44.804;10.220;2024-01-15T11:58:41;57.45;;;40.63;;
58468;SDS011;44257;44.804;10.220;2024-01-15T12:01:08;53.65;;;39.45;;
58468;SDS011;44257;44.804;10.220;2024-01-15T12:03:34;55.17;;;41.83;;
58468;SDS011;44257;44.804;10.220;2024-01-15T12:06:00;59.08;;;40.95;;
58468;SDS011;44257;44.804;10.220;2024-01-15T12:08:26;57.45;;;40.10;;
58468;SDS011;44257;44.804;10.220;2024-01-15T12:10:52;59.33;;;43.75;;
58468;SDS011;44257;44.804;10.220;2024-01-15T12:13:18;57.80;;;43.42;;
58468;SDS011;44257;44.804;10.220;2024-01-15T12:15:46;55.55;;;38.88;;
58468;SDS011;44257;44.804;10.220;2024-01-15T12:18:14;52.20;;;39.83;;
58468;SDS011;44257;44.804;10.220;2024-01-15T12:20:43;53.65;;;39.55;;
58468;SDS011;44257;44.804;10.220;2024-01-15T12:23:12;55.65;;;39.70;;
58468;SDS011;44257;44.804;10.220;2024-01-15T12:25:41;56.58;;;41.58;;
58468;SDS011;44257;44.804;10.220;2024-01-15T12:28:07;54.47;;;40.33;;
58468;SDS011;44257;44.804;10.220;2024-01-15T12:30:34;55.65;;;40.00;;
58468;SDS011;44257;44.804;10.220;2024-01-15T12:33:04;56.25;;;40.83;;
58468;SDS011;44257;44.804;10.220;2024-01-15T12:35:33;52.08;;;38.47;;
58468;SDS011;44257;44.804;10.220;2024-01-15T12:37:59;56.45;;;40.33;;
58468;SDS011;44257;44.804;10.220;2024-01-15T12:40:29;56.42;;;38.83;;
58468;SDS011;44257;44.804;10.220;2024-01-15T12:42:56;55.67;;;40.95;;
58468;SDS011;44257;44.804;10.220;2024-01-15T12:45:22;56.33;;;40.40;;
58468;SDS011;44257;44.804;10.220;2024-01-15T12:47:47;60.38;;;44.63;;
58468;SDS011;44257;44.804;10.220;2024-01-15T12:50:14;57.88;;;41.83;;
58468;SDS011;44257;44.804;10.220;2024-01-15T12:52:40;63.38;;;47.97;;
58468;SDS011;44257;44.804;10.220;2024-01-15T12:55:07;53.85;;;39.05;;
58468;SDS011;44257;44.804;10.220;2024-01-15T12:57:34;49.90;;;37.75;;
58468;SDS011;44257;44.804;10.220;2024-01-15T13:00:00;53.10;;;40.40;;
58468;SDS011;44257;44.804;10.220;2024-01-15T13:02:27;55.25;;;41.03;;
58468;SDS011;44257;44.804;10.220;2024-01-15T13:04:53;56.58;;;42.38;;
58468;SDS011;44257;44.804;10.220;2024-01-15T13:07:19;54.92;;;41.28;;
58468;SDS011;44257;44.804;10.220;2024-01-15T13:09:45;52.67;;;40.30;;
58468;SDS011;44257;44.804;10.220;2024-01-15T13:12:11;52.47;;;40.20;;
58468;SDS011;44257;44.804;10.220;2024-01-15T13:14:37;53.67;;;40.53;;
58468;SDS011;44257;44.804;10.220;2024-01-15T13:17:03;49.53;;;36.45;;
58468;SDS011;44257;44.804;10.220;2024-01-15T13:19:29;54.15;;;38.03;;
58468;SDS011;44257;44.804;10.220;2024-01-15T13:21:55;53.03;;;38.33;;
58468;SDS011;44257;44.804;10.220;2024-01-15T13:24:23;53.45;;;39.90;;
58468;SDS011;44257;44.804;10.220;2024-01-15T13:26:49;55.22;;;40.15;;
58468;SDS011;44257;44.804;10.220;2024-01-15T13:29:15;55.20;;;41.58;;
58468;SDS011;44257;44.804;10.220;2024-01-15T13:31:41;51.40;;;39.30;;
58468;SDS011;44257;44.804;10.220;2024-01-15T13:34:07;49.70;;;39.40;;
58468;SDS011;44257;44.804;10.220;2024-01-15T13:36:34;55.03;;;40.13;;
58468;SDS011;44257;44.804;10.220;2024-01-15T13:39:00;46.60;;;36.30;;
58468;SDS011;44257;44.804;10.220;2024-01-15T13:41:26;48.35;;;36.08;;
58468;SDS011;44257;44.804;10.220;2024-01-15T13:43:55;51.63;;;36.88;;
58468;SDS011;44257;44.804;10.220;2024-01-15T13:46:25;54.70;;;38.33;;
58468;SDS011;44257;44.804;10.220;2024-01-15T13:48:54;53.00;;;39.35;;
58468;SDS011;44257;44.804;10.220;2024-01-15T13:51:24;53.90;;;40.28;;
58468;SDS011;44257;44.804;10.220;2024-01-15T13:53:50;60.70;;;40.10;;
58468;SDS011;44257;44.804;10.220;2024-01-15T13:56:16;56.50;;;41.90;;
58468;SDS011;44257;44.804;10.220;2024-01-15T13:58:42;51.38;;;39.30;;
58468;SDS011;44257;44.804;10.220;2024-01-15T14:01:08;53.70;;;39.58;;
58468;SDS011;44257;44.804;10.220;2024-01-15T14:03:35;50.72;;;38.90;;
58468;SDS011;44257;44.804;10.220;2024-01-15T14:06:01;52.38;;;39.38;;
58468;SDS011;44257;44.804;10.220;2024-01-15T14:08:30;52.17;;;38.72;;
58468;SDS011;44257;44.804;10.220;2024-01-15T14:11:01;51.42;;;39.20;;
58468;SDS011;44257;44.804;10.220;2024-01-15T14:13:34;52.95;;;39.05;;
58468;SDS011;44257;44.804;10.220;2024-01-15T14:16:02;53.70;;;38.72;;